createdAt,value
2019-01-13T00:02:00.050Z,3.70
2019-01-13T00:04:27.140Z,4.67
2019-01-13T00:06:54.132Z,4.00
2019-01-13T00:09:21.134Z,3.93
2019-01-13T00:11:48.186Z,4.07
2019-01-13T00:14:15.228Z,3.97
2019-01-13T00:16:42.241Z,4.10
2019-01-13T00:19:09.228Z,3.60
2019-01-13T00:21:36.241Z,3.97
2019-01-13T00:24:03.373Z,3.90
2019-01-13T00:26:30.226Z,3.90
2019-01-13T00:28:57.250Z,3.67
2019-01-13T00:31:24.072Z,4.50
2019-01-13T00:33:50.902Z,4.37
2019-01-13T00:36:17.911Z,4.60
2019-01-13T00:38:44.823Z,4.73
2019-01-13T00:41:11.902Z,4.40
2019-01-13T00:43:38.722Z,4.20
2019-01-13T00:46:05.656Z,4.33
2019-01-13T00:48:32.716Z,4.13
2019-01-13T00:50:59.738Z,4.43
2019-01-13T00:53:26.666Z,4.97
2019-01-13T00:55:53.608Z,4.63
2019-01-13T00:58:20.529Z,5.33
2019-01-13T01:00:47.346Z,4.80
2019-01-13T01:03:14.290Z,4.90
2019-01-13T01:05:41.095Z,5.23
2019-01-13T01:08:08.633Z,5.00
2019-01-13T01:10:35.683Z,5.00
2019-01-13T01:13:02.686Z,4.20
2019-01-13T01:15:29.603Z,4.83
2019-01-13T01:17:56.730Z,4.80
2019-01-13T01:20:23.633Z,5.97
2019-01-13T01:22:50.684Z,7.03
2019-01-13T01:25:17.731Z,7.73
2019-01-13T01:27:44.775Z,9.10
2019-01-13T01:30:14.492Z,8.27
2019-01-13T01:32:41.539Z,9.70
2019-01-13T01:35:08.687Z,8.83
2019-01-13T01:37:35.616Z,10.50
2019-01-13T01:40:03.504Z,11.13
2019-01-13T01:42:30.430Z,11.10
2019-01-13T01:44:57.244Z,13.37
2019-01-13T01:47:24.098Z,13.73
2019-01-13T01:49:51.001Z,13.60
2019-01-13T01:52:17.918Z,14.17
2019-01-13T01:54:44.990Z,14.97
2019-01-13T01:57:11.897Z,15.87
2019-01-13T01:59:38.819Z,12.83
2019-01-13T02:02:05.960Z,13.17
2019-01-13T02:04:32.905Z,10.77
2019-01-13T02:06:59.891Z,9.67
2019-01-13T02:09:26.747Z,8.80
2019-01-13T02:11:53.660Z,7.40
2019-01-13T02:14:20.562Z,7.27
2019-01-13T02:16:47.546Z,7.13
2019-01-13T02:19:14.555Z,6.73
2019-01-13T02:21:41.468Z,6.57
2019-01-13T02:24:28.082Z,6.20
2019-01-13T02:26:55.122Z,6.00
2019-01-13T02:29:21.936Z,6.53
2019-01-13T02:31:48.790Z,6.80
2019-01-13T02:34:15.716Z,7.97
2019-01-13T02:36:42.749Z,7.80
2019-01-13T02:39:09.726Z,9.27
2019-01-13T02:41:36.854Z,11.17
2019-01-13T02:44:04.191Z,11.97
2019-01-13T02:46:31.154Z,10.90
2019-01-13T02:48:57.959Z,10.37
2019-01-13T02:51:24.959Z,9.10
2019-01-13T02:53:51.933Z,8.07
2019-01-13T02:56:18.926Z,8.50
2019-01-13T02:58:45.757Z,7.03
2019-01-13T03:01:12.922Z,5.63
2019-01-13T03:03:39.825Z,5.33
2019-01-13T03:06:06.844Z,5.37
2019-01-13T03:08:33.882Z,5.53
2019-01-13T03:11:00.806Z,4.80
2019-01-13T03:13:27.747Z,5.70
2019-01-13T03:15:54.690Z,5.50
2019-01-13T03:18:21.623Z,5.57
2019-01-13T03:20:48.683Z,5.47
2019-01-13T03:23:15.618Z,4.47
2019-01-13T03:25:42.636Z,4.57
2019-01-13T03:28:09.528Z,5.17
2019-01-13T03:30:36.591Z,4.93
2019-01-13T03:33:03.631Z,4.37
2019-01-13T03:35:30.634Z,4.17
2019-01-13T03:37:57.691Z,3.93
2019-01-13T03:40:24.704Z,3.40
2019-01-13T03:42:52.135Z,3.70
2019-01-13T03:45:19.282Z,3.50
2019-01-13T03:47:46.209Z,2.67
2019-01-13T03:50:15.682Z,2.63
2019-01-13T03:52:42.824Z,2.83
2019-01-13T03:55:10.390Z,2.73
2019-01-13T03:57:37.405Z,3.00
2019-01-13T04:00:07.926Z,4.57
2019-01-13T04:02:34.947Z,4.10
2019-01-13T04:05:01.972Z,4.00
2019-01-13T04:07:29.120Z,3.33
2019-01-13T04:09:56.130Z,3.57
2019-01-13T04:12:22.969Z,4.93
2019-01-13T04:14:49.959Z,4.73
2019-01-13T04:17:17.822Z,3.43
2019-01-13T04:19:44.866Z,2.67
2019-01-13T04:22:11.727Z,2.33
2019-01-13T04:24:38.630Z,2.23
2019-01-13T04:27:05.550Z,2.03
2019-01-13T04:29:32.653Z,2.17
2019-01-13T04:31:59.560Z,2.47
2019-01-13T04:34:26.402Z,2.80
2019-01-13T04:36:53.290Z,2.90
2019-01-13T04:39:20.205Z,2.30
2019-01-13T04:41:47.003Z,2.10
2019-01-13T04:44:13.865Z,1.90
2019-01-13T04:46:40.953Z,2.00
2019-01-13T04:49:07.755Z,2.30
2019-01-13T04:51:34.742Z,1.93
2019-01-13T04:54:01.770Z,2.10
2019-01-13T04:56:28.676Z,2.50
2019-01-13T04:58:55.625Z,2.47
2019-01-13T05:01:22.527Z,2.70
2019-01-13T05:03:49.440Z,3.00
2019-01-13T05:06:16.403Z,2.70
2019-01-13T05:08:43.605Z,2.53
2019-01-13T05:11:10.721Z,3.53
2019-01-13T05:13:37.571Z,4.00
2019-01-13T05:16:04.606Z,3.60
2019-01-13T05:18:31.507Z,3.87
2019-01-13T05:20:58.364Z,3.90
2019-01-13T05:23:25.268Z,4.53
2019-01-13T05:25:52.105Z,4.20
2019-01-13T05:28:18.941Z,3.40
2019-01-13T05:30:45.862Z,3.13
2019-01-13T05:33:12.669Z,3.00
2019-01-13T05:35:39.617Z,3.33
2019-01-13T05:38:06.650Z,3.80
2019-01-13T05:40:33.576Z,3.23
2019-01-13T05:43:00.436Z,3.60
2019-01-13T05:45:27.370Z,3.77
2019-01-13T05:47:54.359Z,4.10
2019-01-13T05:50:21.395Z,4.17
2019-01-13T05:52:52.794Z,5.67
2019-01-13T05:55:19.837Z,9.30
2019-01-13T05:57:46.929Z,11.17
2019-01-13T06:00:19.443Z,14.97
2019-01-13T06:02:46.347Z,13.67
2019-01-13T06:05:13.376Z,11.40
2019-01-13T06:07:40.404Z,8.50
2019-01-13T06:10:08.791Z,8.33
2019-01-13T06:12:35.757Z,9.00
2019-01-13T06:15:03.830Z,11.33
2019-01-13T06:17:30.644Z,13.10
2019-01-13T06:19:57.574Z,14.07
2019-01-13T06:22:24.399Z,14.70
2019-01-13T06:24:51.209Z,20.43
2019-01-13T06:27:18.074Z,18.93
2019-01-13T06:29:44.865Z,19.83
2019-01-13T06:32:11.780Z,19.80
2019-01-13T06:34:38.658Z,17.70
2019-01-13T06:37:05.482Z,21.13
2019-01-13T06:39:32.309Z,22.43
2019-01-13T06:41:59.341Z,24.37
2019-01-13T06:44:26.250Z,28.20
2019-01-13T06:46:53.174Z,21.37
2019-01-13T06:49:20.516Z,15.37
2019-01-13T06:51:47.439Z,13.07
2019-01-13T06:54:14.265Z,11.47
2019-01-13T06:56:41.143Z,11.13
2019-01-13T06:59:08.070Z,11.80
2019-01-13T07:01:34.898Z,9.67
2019-01-13T07:04:01.878Z,8.30
2019-01-13T07:06:28.904Z,8.90
2019-01-13T07:08:55.876Z,9.33
2019-01-13T07:11:22.876Z,7.53
2019-01-13T07:13:49.802Z,8.33
2019-01-13T07:16:16.718Z,9.10
2019-01-13T07:18:43.563Z,8.03
2019-01-13T07:21:10.487Z,7.63
2019-01-13T07:23:37.336Z,8.60
2019-01-13T07:26:04.186Z,8.20
2019-01-13T07:28:31.114Z,8.43
2019-01-13T07:30:58.051Z,7.30
2019-01-13T07:33:25.004Z,7.33
2019-01-13T07:35:51.922Z,7.47
2019-01-13T07:38:18.830Z,6.00
2019-01-13T07:40:45.698Z,6.40
2019-01-13T07:43:12.518Z,6.30
2019-01-13T07:45:39.465Z,5.67
2019-01-13T07:48:06.406Z,6.87
2019-01-13T07:50:33.235Z,7.63
2019-01-13T07:53:00.133Z,8.50
2019-01-13T07:55:27.101Z,9.20
2019-01-13T07:57:54.131Z,9.83
2019-01-13T08:00:32.282Z,10.10
2019-01-13T08:02:59.829Z,9.30
2019-01-13T08:05:32.497Z,7.87
2019-01-13T08:07:59.549Z,7.07
2019-01-13T08:10:26.378Z,7.03
2019-01-13T08:12:53.218Z,6.60
2019-01-13T08:15:20.470Z,6.87
2019-01-13T08:17:47.586Z,6.33
2019-01-13T08:20:18.213Z,6.90
2019-01-13T08:22:45.264Z,6.73
2019-01-13T08:25:12.328Z,7.00
2019-01-13T08:27:39.302Z,6.17
2019-01-13T08:30:10.129Z,6.93
2019-01-13T08:32:37.046Z,7.03
2019-01-13T08:35:04.072Z,6.30
2019-01-13T08:37:31.029Z,6.63
2019-01-13T08:39:58.069Z,7.77
2019-01-13T08:42:24.986Z,7.93
2019-01-13T08:44:52.062Z,8.97
2019-01-13T08:47:18.878Z,9.83
2019-01-13T08:49:45.822Z,9.67
2019-01-13T08:52:12.778Z,9.03
2019-01-13T08:54:39.580Z,9.00
2019-01-13T08:57:06.411Z,9.30
2019-01-13T08:59:33.383Z,8.97
2019-01-13T09:02:00.303Z,9.17
2019-01-13T09:04:27.227Z,10.17
2019-01-13T09:06:56.086Z,8.93
2019-01-13T09:09:22.945Z,9.47
2019-01-13T09:11:49.968Z,8.20
2019-01-13T09:14:16.958Z,8.43
2019-01-13T09:16:44.110Z,8.13
2019-01-13T09:19:11.286Z,7.70
2019-01-13T09:21:38.363Z,7.27
2019-01-13T09:24:05.306Z,7.10
2019-01-13T09:26:32.190Z,6.80
2019-01-13T09:28:59.155Z,6.70
2019-01-13T09:31:26.067Z,6.17
2019-01-13T09:33:52.890Z,5.77
2019-01-13T09:36:19.761Z,5.00
2019-01-13T09:38:46.702Z,5.77
2019-01-13T09:41:13.730Z,4.87
2019-01-13T09:43:40.681Z,5.80
2019-01-13T09:46:07.709Z,5.33
2019-01-13T09:48:34.613Z,5.57
2019-01-13T09:51:01.684Z,4.57
2019-01-13T09:53:28.708Z,5.60
2019-01-13T09:55:55.555Z,5.30
2019-01-13T09:58:22.614Z,4.73
2019-01-13T10:00:49.638Z,4.83
2019-01-13T10:03:16.663Z,4.60
2019-01-13T10:05:43.711Z,4.30
2019-01-13T10:08:10.770Z,4.47
2019-01-13T10:10:37.810Z,3.77
2019-01-13T10:13:05.270Z,3.10
2019-01-13T10:15:32.208Z,3.67
2019-01-13T10:17:59.229Z,3.60
2019-01-13T10:20:26.295Z,3.10
2019-01-13T10:22:53.249Z,2.70
2019-01-13T10:25:20.273Z,3.17
2019-01-13T10:27:47.445Z,2.27
2019-01-13T10:30:17.070Z,2.13
2019-01-13T10:32:44.305Z,2.30
2019-01-13T10:35:12.001Z,3.17
2019-01-13T10:37:39.098Z,3.13
2019-01-13T10:40:08.761Z,2.27
2019-01-13T10:42:35.834Z,2.00
2019-01-13T10:45:03.767Z,2.33
2019-01-13T10:47:30.798Z,2.67
2019-01-13T10:49:58.064Z,2.53
2019-01-13T10:52:24.873Z,2.30
2019-01-13T10:54:51.806Z,2.27
2019-01-13T10:57:18.802Z,2.47
2019-01-13T10:59:45.614Z,2.57
2019-01-13T11:02:12.510Z,2.63
2019-01-13T11:04:39.468Z,2.60
2019-01-13T11:07:06.299Z,2.53
2019-01-13T11:09:33.225Z,2.80
2019-01-13T11:12:00.062Z,2.87
2019-01-13T11:14:27.057Z,2.73
2019-01-13T11:16:54.047Z,2.80
2019-01-13T11:19:21.007Z,2.90
2019-01-13T11:21:48.009Z,3.30
2019-01-13T11:24:14.818Z,3.50
2019-01-13T11:26:41.774Z,3.50
2019-01-13T11:29:08.593Z,3.77
2019-01-13T11:31:35.518Z,4.30
2019-01-13T11:34:02.566Z,3.97
2019-01-13T11:36:29.470Z,4.00
2019-01-13T11:38:56.263Z,4.00
2019-01-13T11:41:23.314Z,5.27
2019-01-13T11:43:50.130Z,4.67
2019-01-13T11:46:16.972Z,6.10
2019-01-13T11:48:43.924Z,5.23
2019-01-13T11:51:10.834Z,5.77
2019-01-13T11:53:37.791Z,5.83
2019-01-13T11:56:04.944Z,5.67
2019-01-13T11:58:31.743Z,6.03
2019-01-13T12:00:58.566Z,5.57
2019-01-13T12:03:25.415Z,5.30
2019-01-13T12:05:52.245Z,4.47
2019-01-13T12:08:19.083Z,4.00
2019-01-13T12:10:46.046Z,4.23
2019-01-13T12:13:13.000Z,3.90
2019-01-13T12:15:39.952Z,4.83
2019-01-13T12:18:07.027Z,4.60
2019-01-13T12:20:34.050Z,4.03
2019-01-13T12:23:00.966Z,2.70
2019-01-13T12:25:27.907Z,3.00
2019-01-13T12:27:54.829Z,2.50
2019-01-13T12:30:23.808Z,2.10
2019-01-13T12:32:50.853Z,2.10
2019-01-13T12:35:17.857Z,2.20
2019-01-13T12:37:44.761Z,2.00
2019-01-13T12:40:13.800Z,2.20
2019-01-13T12:42:40.745Z,2.30
2019-01-13T12:45:08.149Z,1.70
2019-01-13T12:47:35.092Z,1.43
2019-01-13T12:50:02.283Z,1.70
2019-01-13T12:52:29.173Z,1.70
2019-01-13T12:54:56.119Z,1.90
2019-01-13T12:57:23.144Z,1.53
2019-01-13T12:59:50.030Z,1.40
2019-01-13T13:02:16.875Z,1.70
2019-01-13T13:04:43.665Z,1.60
2019-01-13T13:07:10.586Z,1.67
2019-01-13T13:09:37.627Z,1.80
2019-01-13T13:12:04.628Z,2.00
2019-01-13T13:14:31.417Z,2.17
2019-01-13T13:16:58.369Z,2.20
2019-01-13T13:19:25.283Z,3.00
2019-01-13T13:21:52.282Z,2.60
2019-01-13T13:24:19.222Z,2.00
2019-01-13T13:26:46.158Z,2.40
2019-01-13T13:29:12.979Z,3.73
2019-01-13T13:31:39.946Z,5.43
2019-01-13T13:34:07.193Z,4.03
2019-01-13T13:36:34.197Z,3.23
2019-01-13T13:39:01.146Z,2.03
2019-01-13T13:41:28.029Z,0.70
2019-01-13T13:43:55.072Z,0.80
2019-01-13T13:46:22.011Z,1.30
2019-01-13T13:48:48.912Z,3.40
2019-01-13T13:51:15.835Z,3.00
2019-01-13T13:53:42.929Z,1.33
2019-01-13T13:56:09.848Z,0.90
2019-01-13T13:58:36.654Z,1.13
2019-01-13T14:01:04.042Z,0.60
2019-01-13T14:03:31.051Z,0.53
2019-01-13T14:05:58.060Z,0.83
2019-01-13T14:08:25.029Z,0.77
2019-01-13T14:10:52.037Z,0.40
2019-01-13T14:13:19.034Z,1.53
2019-01-13T14:15:45.970Z,1.40
2019-01-13T14:18:12.902Z,1.67
2019-01-13T14:20:39.922Z,1.63
2019-01-13T14:23:06.898Z,2.33
2019-01-13T14:25:34.027Z,2.40
2019-01-13T14:28:01.069Z,1.20
2019-01-13T14:30:28.203Z,1.37
2019-01-13T14:32:55.757Z,2.27
2019-01-13T14:35:23.054Z,2.13
2019-01-13T14:37:50.118Z,1.70
2019-01-13T14:40:20.344Z,1.73
2019-01-13T14:42:47.613Z,1.57
2019-01-13T14:45:16.701Z,2.00
2019-01-13T14:47:43.726Z,2.00
2019-01-13T14:50:15.113Z,2.00
2019-01-13T14:52:42.565Z,1.40
2019-01-13T14:55:09.615Z,1.50
2019-01-13T14:57:36.660Z,1.87
2019-01-13T15:00:08.066Z,2.57
2019-01-13T15:02:34.898Z,2.83
2019-01-13T15:05:01.986Z,2.43
2019-01-13T15:07:29.222Z,2.40
2019-01-13T15:09:56.134Z,2.13
2019-01-13T15:12:23.052Z,2.33
2019-01-13T15:14:51.167Z,1.80
2019-01-13T15:17:18.106Z,2.43
2019-01-13T15:19:44.957Z,1.60
2019-01-13T15:22:12.050Z,1.97
2019-01-13T15:24:40.403Z,1.80
2019-01-13T15:27:07.429Z,2.73
2019-01-13T15:29:34.410Z,2.57
2019-01-13T15:32:01.477Z,1.80
2019-01-13T15:34:28.510Z,3.03
2019-01-13T15:36:55.625Z,3.27
2019-01-13T15:39:22.440Z,1.60
2019-01-13T15:41:49.374Z,1.40
2019-01-13T15:44:16.412Z,1.70
2019-01-13T15:46:43.364Z,1.70
2019-01-13T15:49:10.192Z,1.57
2019-01-13T15:51:37.259Z,1.70
2019-01-13T15:54:04.288Z,1.53
2019-01-13T15:56:31.344Z,2.37
2019-01-13T15:58:58.598Z,1.20
2019-01-13T16:01:25.516Z,1.13
2019-01-13T16:03:52.645Z,1.73
2019-01-13T16:06:19.611Z,1.43
2019-01-13T16:08:46.657Z,1.60
2019-01-13T16:11:13.612Z,2.43
2019-01-13T16:13:40.698Z,2.27
2019-01-13T16:16:07.755Z,1.57
2019-01-13T16:18:34.770Z,1.53
2019-01-13T16:21:01.878Z,1.63
2019-01-13T16:23:28.690Z,2.23
2019-01-13T16:25:55.877Z,2.07
2019-01-13T16:28:22.891Z,3.07
2019-01-13T16:30:49.715Z,2.10
2019-01-13T16:33:16.667Z,1.90
2019-01-13T16:35:44.386Z,2.77
2019-01-13T16:38:11.258Z,1.83
2019-01-13T16:40:38.186Z,1.93
2019-01-13T16:43:05.319Z,2.57
2019-01-13T16:45:32.405Z,2.77
2019-01-13T16:47:59.479Z,2.63
2019-01-13T16:50:27.366Z,2.37
2019-01-13T16:52:55.721Z,2.20
2019-01-13T16:55:23.814Z,3.27
2019-01-13T16:57:50.997Z,3.43
2019-01-13T17:00:19.993Z,2.70
2019-01-13T17:02:46.895Z,2.53
2019-01-13T17:05:15.334Z,2.57
2019-01-13T17:07:42.355Z,3.10
2019-01-13T17:10:11.666Z,3.17
2019-01-13T17:12:38.639Z,2.83
2019-01-13T17:15:08.012Z,2.50
2019-01-13T17:17:34.931Z,3.07
2019-01-13T17:20:02.717Z,3.30
2019-01-13T17:22:29.518Z,3.23
2019-01-13T17:24:56.346Z,3.30
2019-01-13T17:27:23.627Z,2.77
2019-01-13T17:29:50.559Z,2.27
2019-01-13T17:32:17.492Z,2.87
2019-01-13T17:34:44.503Z,3.03
2019-01-13T17:37:11.534Z,2.27
2019-01-13T17:39:38.624Z,2.30
2019-01-13T17:42:05.591Z,2.27
2019-01-13T17:44:32.910Z,2.37
2019-01-13T17:46:59.952Z,2.23
2019-01-13T17:49:26.898Z,2.80
2019-01-13T17:51:53.921Z,2.37
2019-01-13T17:54:20.947Z,2.50
2019-01-13T17:56:47.822Z,1.63
2019-01-13T17:59:14.634Z,2.03
2019-01-13T18:01:48.091Z,2.23
2019-01-13T18:04:15.094Z,3.20
2019-01-13T18:06:42.156Z,2.40
2019-01-13T18:09:08.979Z,2.70
2019-01-13T18:11:35.941Z,3.27
2019-01-13T18:14:04.986Z,2.83
2019-01-13T18:16:31.989Z,2.17
2019-01-13T18:18:59.151Z,3.20
2019-01-13T18:21:26.430Z,2.53
2019-01-13T18:23:53.368Z,2.30
2019-01-13T18:26:20.414Z,2.43
2019-01-13T18:28:47.335Z,2.87
2019-01-13T18:31:14.391Z,2.33
2019-01-13T18:33:41.365Z,1.73
2019-01-13T18:36:08.426Z,3.10
2019-01-13T18:38:35.915Z,2.90
2019-01-13T18:41:02.964Z,2.57
2019-01-13T18:43:30.019Z,2.40
2019-01-13T18:45:58.039Z,2.13
2019-01-13T18:48:26.398Z,2.10
2019-01-13T18:50:53.334Z,2.10
2019-01-13T18:53:20.412Z,3.17
2019-01-13T18:55:47.386Z,2.57
2019-01-13T18:58:14.244Z,2.47
2019-01-13T19:00:41.278Z,3.60
2019-01-13T19:03:08.226Z,2.43
2019-01-13T19:05:35.276Z,3.90
2019-01-13T19:08:02.436Z,2.37
2019-01-13T19:10:51.429Z,3.37
2019-01-13T19:13:36.129Z,4.00
2019-01-13T19:16:03.230Z,2.90
2019-01-13T19:18:30.433Z,5.07
2019-01-13T19:20:57.373Z,2.07
2019-01-13T19:23:25.614Z,5.23
2019-01-13T19:25:52.423Z,3.47
2019-01-13T19:28:19.378Z,2.33
2019-01-13T19:30:46.463Z,1.83
2019-01-13T19:33:13.566Z,2.53
2019-01-13T19:35:40.598Z,2.90
2019-01-13T19:38:07.595Z,2.87
2019-01-13T19:40:34.587Z,2.30
2019-01-13T19:43:01.934Z,3.17
2019-01-13T19:45:29.003Z,2.53
2019-01-13T19:47:55.937Z,2.00
2019-01-13T19:50:24.173Z,2.40
2019-01-13T19:52:51.246Z,1.80
2019-01-13T19:55:18.388Z,2.73
2019-01-13T19:57:45.411Z,1.50
2019-01-13T20:00:16.109Z,2.13
2019-01-13T20:02:42.934Z,1.93
2019-01-13T20:05:11.968Z,3.30
2019-01-13T20:07:39.181Z,2.50
2019-01-13T20:10:06.839Z,4.13
2019-01-13T20:12:33.890Z,3.10
2019-01-13T20:15:01.236Z,2.23
2019-01-13T20:17:28.298Z,2.83
2019-01-13T20:19:55.266Z,3.07
2019-01-13T20:22:22.148Z,2.77
2019-01-13T20:24:49.067Z,2.17
2019-01-13T20:27:16.018Z,1.93
2019-01-13T20:29:42.939Z,2.43
2019-01-13T20:32:09.781Z,2.30
2019-01-13T20:34:36.751Z,2.43
2019-01-13T20:37:03.898Z,2.93
2019-01-13T20:39:30.858Z,2.10
2019-01-13T20:41:58.022Z,3.13
2019-01-13T20:44:25.112Z,2.93
2019-01-13T20:46:52.028Z,2.53
2019-01-13T20:49:18.854Z,2.90
2019-01-13T20:51:45.798Z,2.27
2019-01-13T20:54:12.726Z,2.70
2019-01-13T20:56:39.661Z,2.17
2019-01-13T20:59:06.525Z,1.97
2019-01-13T21:01:33.458Z,2.73
2019-01-13T21:04:00.496Z,1.73
2019-01-13T21:06:27.549Z,2.63
2019-01-13T21:08:54.687Z,2.10
2019-01-13T21:11:21.742Z,2.30
2019-01-13T21:13:48.711Z,3.43
2019-01-13T21:16:15.800Z,1.77
2019-01-13T21:18:42.849Z,1.93
2019-01-13T21:21:10.138Z,2.07
2019-01-13T21:23:36.981Z,3.00
2019-01-13T21:26:04.042Z,2.40
2019-01-13T21:28:31.009Z,2.43
2019-01-13T21:30:57.837Z,2.50
2019-01-13T21:33:25.058Z,2.03
2019-01-13T21:35:52.239Z,1.60
2019-01-13T21:38:19.263Z,2.03
2019-01-13T21:40:46.234Z,2.23
2019-01-13T21:43:13.427Z,1.80
2019-01-13T21:45:40.592Z,2.00
2019-01-13T21:48:07.602Z,2.17
2019-01-13T21:50:34.644Z,1.73
2019-01-13T21:53:01.572Z,1.97
2019-01-13T21:55:28.702Z,1.80
2019-01-13T21:57:55.684Z,1.70
2019-01-13T22:00:24.480Z,1.40
2019-01-13T22:02:51.786Z,1.70
2019-01-13T22:05:18.853Z,1.23
2019-01-13T22:07:45.904Z,1.43
2019-01-13T22:10:20.074Z,1.63
2019-01-13T22:12:47.494Z,1.43
2019-01-13T22:15:16.035Z,2.03
2019-01-13T22:17:43.384Z,1.40
2019-01-13T22:20:13.013Z,1.50
2019-01-13T22:22:40.065Z,1.00
2019-01-13T22:25:07.627Z,0.93
2019-01-13T22:27:34.798Z,0.60
2019-01-13T22:30:01.835Z,1.33
2019-01-13T22:32:30.253Z,0.33
2019-01-13T22:34:57.119Z,0.43
2019-01-13T22:37:24.055Z,0.60
2019-01-13T22:39:51.002Z,0.80
2019-01-13T22:42:18.181Z,0.63
2019-01-13T22:44:45.236Z,0.40
2019-01-13T22:47:12.068Z,0.20
2019-01-13T22:49:38.928Z,0.10
2019-01-13T22:52:05.939Z,0.10
2019-01-13T22:54:32.869Z,0.30
2019-01-13T22:56:59.739Z,0.37
2019-01-13T22:59:26.678Z,0.27
2019-01-13T23:01:53.815Z,0.47
2019-01-13T23:04:20.933Z,0.23
2019-01-13T23:06:47.962Z,0.20
2019-01-13T23:09:15.014Z,0.20
2019-01-13T23:11:41.986Z,0.30
2019-01-13T23:14:12.039Z,0.40
2019-01-13T23:16:39.377Z,0.40
2019-01-13T23:19:06.244Z,0.40
2019-01-13T23:21:33.227Z,0.20
2019-01-13T23:24:00.258Z,0.30
2019-01-13T23:26:27.310Z,0.37
2019-01-13T23:28:54.151Z,0.30
2019-01-13T23:31:21.210Z,0.40
2019-01-13T23:33:48.194Z,0.40
2019-01-13T23:36:15.241Z,0.30
2019-01-13T23:38:42.088Z,0.50
2019-01-13T23:41:09.113Z,0.30
2019-01-13T23:43:36.168Z,0.27
2019-01-13T23:46:03.230Z,0.40
2019-01-13T23:48:30.202Z,0.27
2019-01-13T23:50:57.030Z,0.30
2019-01-13T23:53:23.965Z,0.40
2019-01-13T23:55:50.838Z,0.40
2019-01-13T23:58:17.870Z,0.60
